sensor_id;sensor_type;location;lat;lon;timestamp;temperature;humidity
69436;SHT31;56625;54.322;18.582;2023-07-16T00:00:27;21.61;63.92
69436;SHT31;56625;54.322;18.582;2023-07-16T00:03:15;21.63;63.88
69436;SHT31;56625;54.322;18.582;2023-07-16T00:05:43;21.63;63.87
69436;SHT31;56625;54.322;18.582;2023-07-16T00:08:11;21.62;63.99
69436;SHT31;56625;54.322;18.582;2023-07-16T00:10:39;21.60;63.90
69436;SHT31;56625;54.322;18.582;2023-07-16T00:13:08;21.56;63.72
69436;SHT31;56625;54.322;18.582;2023-07-16T00:15:36;21.54;64.10
69436;SHT31;56625;54.322;18.582;2023-07-16T00:18:04;21.55;64.48
69436;SHT31;56625;54.322;18.582;2023-07-16T00:20:33;21.53;64.43
69436;SHT31;56625;54.322;18.582;2023-07-16T00:23:01;21.50;64.46
69436;SHT31;56625;54.322;18.582;2023-07-16T00:25:32;21.49;64.26
69436;SHT31;56625;54.322;18.582;2023-07-16T00:28:00;21.45;64.34
69436;SHT31;56625;54.322;18.582;2023-07-16T00:30:28;21.46;64.48
69436;SHT31;56625;54.322;18.582;2023-07-16T00:32:56;21.41;63.50
69436;SHT31;56625;54.322;18.582;2023-07-16T00:35:24;21.38;63.68
69436;SHT31;56625;54.322;18.582;2023-07-16T00:37:52;21.39;63.89
69436;SHT31;56625;54.322;18.582;2023-07-16T00:40:20;21.36;63.41
69436;SHT31;56625;54.322;18.582;2023-07-16T00:42:48;21.38;64.17
69436;SHT31;56625;54.322;18.582;2023-07-16T00:45:15;21.37;63.94
69436;SHT31;56625;54.322;18.582;2023-07-16T00:47:43;21.32;63.88
69436;SHT31;56625;54.322;18.582;2023-07-16T00:50:12;21.26;63.52
69436;SHT31;56625;54.322;18.582;2023-07-16T00:52:40;21.26;64.76
69436;SHT31;56625;54.322;18.582;2023-07-16T00:55:09;21.29;64.93
69436;SHT31;56625;54.322;18.582;2023-07-16T00:57:37;21.25;65.04
69436;SHT31;56625;54.322;18.582;2023-07-16T01:00:07;21.24;66.12
69436;SHT31;56625;54.322;18.582;2023-07-16T01:02:37;21.31;66.15
69436;SHT31;56625;54.322;18.582;2023-07-16T01:05:06;21.32;65.68
69436;SHT31;56625;54.322;18.582;2023-07-16T01:07:34;21.30;65.40
69436;SHT31;56625;54.322;18.582;2023-07-16T01:10:04;21.37;66.14
69436;SHT31;56625;54.322;18.582;2023-07-16T01:12:35;21.40;65.72
69436;SHT31;56625;54.322;18.582;2023-07-16T01:15:04;21.40;66.07
69436;SHT31;56625;54.322;18.582;2023-07-16T01:17:33;21.39;66.18
69436;SHT31;56625;54.322;18.582;2023-07-16T01:20:01;21.38;66.13
69436;SHT31;56625;54.322;18.582;2023-07-16T01:22:52;21.35;66.27
69436;SHT31;56625;54.322;18.582;2023-07-16T01:31:58;21.36;66.35
69436;SHT31;56625;54.322;18.582;2023-07-16T01:34:33;21.23;65.96
69436;SHT31;56625;54.322;18.582;2023-07-16T01:37:03;21.07;66.34
69436;SHT31;56625;54.322;18.582;2023-07-16T01:39:32;20.98;66.38
69436;SHT31;56625;54.322;18.582;2023-07-16T01:42:02;20.89;66.31
69436;SHT31;56625;54.322;18.582;2023-07-16T01:44:30;20.88;67.04
69436;SHT31;56625;54.322;18.582;2023-07-16T01:47:05;20.87;66.55
69436;SHT31;56625;54.322;18.582;2023-07-16T01:49:38;20.82;66.82
69436;SHT31;56625;54.322;18.582;2023-07-16T01:52:07;20.82;67.36
69436;SHT31;56625;54.322;18.582;2023-07-16T01:54:36;20.81;67.11
69436;SHT31;56625;54.322;18.582;2023-07-16T01:57:04;20.82;67.06
69436;SHT31;56625;54.322;18.582;2023-07-16T01:59:32;20.77;66.84
69436;SHT31;56625;54.322;18.582;2023-07-16T02:02:00;20.78;67.23
69436;SHT31;56625;54.322;18.582;2023-07-16T02:04:28;20.80;67.37
69436;SHT31;56625;54.322;18.582;2023-07-16T02:06:56;20.80;67.46
69436;SHT31;56625;54.322;18.582;2023-07-16T02:09:24;20.83;67.98
69436;SHT31;56625;54.322;18.582;2023-07-16T02:11:52;20.84;67.97
69436;SHT31;56625;54.322;18.582;2023-07-16T02:14:20;20.86;68.06
69436;SHT31;56625;54.322;18.582;2023-07-16T02:16:48;20.86;68.25
69436;SHT31;56625;54.322;18.582;2023-07-16T02:19:16;20.85;67.59
69436;SHT31;56625;54.322;18.582;2023-07-16T02:21:44;20.78;67.46
69436;SHT31;56625;54.322;18.582;2023-07-16T02:24:12;20.75;68.28
69436;SHT31;56625;54.322;18.582;2023-07-16T02:26:40;20.73;67.77
69436;SHT31;56625;54.322;18.582;2023-07-16T02:29:08;20.52;68.25
69436;SHT31;56625;54.322;18.582;2023-07-16T02:31:36;20.54;69.75
69436;SHT31;56625;54.322;18.582;2023-07-16T02:34:04;20.71;69.63
69436;SHT31;56625;54.322;18.582;2023-07-16T02:36:32;20.81;69.59
69436;SHT31;56625;54.322;18.582;2023-07-16T02:39:00;20.99;69.63
69436;SHT31;56625;54.322;18.582;2023-07-16T02:41:28;21.04;68.33
69436;SHT31;56625;54.322;18.582;2023-07-16T02:43:59;20.87;68.33
69436;SHT31;56625;54.322;18.582;2023-07-16T02:46:32;20.85;69.09
69436;SHT31;56625;54.322;18.582;2023-07-16T02:49:02;20.86;68.53
69436;SHT31;56625;54.322;18.582;2023-07-16T02:51:30;20.83;68.30
69436;SHT31;56625;54.322;18.582;2023-07-16T02:53:58;20.79;68.16
69436;SHT31;56625;54.322;18.582;2023-07-16T02:56:26;20.80;68.47
69436;SHT31;56625;54.322;18.582;2023-07-16T02:58:54;20.84;68.70
69436;SHT31;56625;54.322;18.582;2023-07-16T03:01:22;20.82;68.81
69436;SHT31;56625;54.322;18.582;2023-07-16T03:03:50;20.84;68.81
69436;SHT31;56625;54.322;18.582;2023-07-16T03:06:18;20.84;68.44
69436;SHT31;56625;54.322;18.582;2023-07-16T03:08:49;20.84;68.29
69436;SHT31;56625;54.322;18.582;2023-07-16T03:11:17;20.85;68.54
69436;SHT31;56625;54.322;18.582;2023-07-16T03:13:45;20.77;68.42
69436;SHT31;56625;54.322;18.582;2023-07-16T03:16:12;20.63;68.67
69436;SHT31;56625;54.322;18.582;2023-07-16T03:18:41;20.61;69.70
69436;SHT31;56625;54.322;18.582;2023-07-16T03:21:09;20.73;69.38
69436;SHT31;56625;54.322;18.582;2023-07-16T03:23:37;20.82;69.53
69436;SHT31;56625;54.322;18.582;2023-07-16T03:26:05;20.92;69.03
69436;SHT31;56625;54.322;18.582;2023-07-16T03:28:33;20.98;68.55
69436;SHT31;56625;54.322;18.582;2023-07-16T03:31:01;21.08;68.36
69436;SHT31;56625;54.322;18.582;2023-07-16T03:33:29;21.15;67.93
69436;SHT31;56625;54.322;18.582;2023-07-16T03:35:57;21.24;67.79
69436;SHT31;56625;54.322;18.582;2023-07-16T03:38:25;21.43;67.86
69436;SHT31;56625;54.322;18.582;2023-07-16T03:40:53;21.70;68.19
69436;SHT31;56625;54.322;18.582;2023-07-16T03:43:21;21.84;67.02
69436;SHT31;56625;54.322;18.582;2023-07-16T03:45:48;21.87;67.18
69436;SHT31;56625;54.322;18.582;2023-07-16T03:48:16;21.94;66.97
69436;SHT31;56625;54.322;18.582;2023-07-16T03:50:46;21.98;66.59
69436;SHT31;56625;54.322;18.582;2023-07-16T03:53:14;22.02;66.33
69436;SHT31;56625;54.322;18.582;2023-07-16T03:55:42;22.07;66.15
69436;SHT31;56625;54.322;18.582;2023-07-16T03:58:10;22.11;65.71
69436;SHT31;56625;54.322;18.582;2023-07-16T04:00:38;22.42;65.14
69436;SHT31;56625;54.322;18.582;2023-07-16T04:03:08;22.88;64.50
69436;SHT31;56625;54.322;18.582;2023-07-16T04:05:36;23.34;63.61
69436;SHT31;56625;54.322;18.582;2023-07-16T04:08:04;23.77;62.03
69436;SHT31;56625;54.322;18.582;2023-07-16T04:10:32;24.16;61.38
69436;SHT31;56625;54.322;18.582;2023-07-16T04:13:00;24.34;60.84
69436;SHT31;56625;54.322;18.582;2023-07-16T04:15:27;24.63;60.44
69436;SHT31;56625;54.322;18.582;2023-07-16T04:17:55;24.97;59.85
69436;SHT31;56625;54.322;18.582;2023-07-16T04:20:23;25.35;58.67
69436;SHT31;56625;54.322;18.582;2023-07-16T04:22:52;25.73;57.61
69436;SHT31;56625;54.322;18.582;2023-07-16T04:25:20;26.03;56.10
69436;SHT31;56625;54.322;18.582;2023-07-16T04:27:48;26.18;55.19
69436;SHT31;56625;54.322;18.582;2023-07-16T04:30:16;26.24;54.07
69436;SHT31;56625;54.322;18.582;2023-07-16T04:32:44;26.32;53.28
69436;SHT31;56625;54.322;18.582;2023-07-16T04:35:12;26.32;52.33
69436;SHT31;56625;54.322;18.582;2023-07-16T04:37:40;26.37;53.16
69436;SHT31;56625;54.322;18.582;2023-07-16T04:40:08;26.51;51.72
69436;SHT31;56625;54.322;18.582;2023-07-16T04:42:36;26.35;51.47
69436;SHT31;56625;54.322;18.582;2023-07-16T04:45:04;26.12;52.00
69436;SHT31;56625;54.322;18.582;2023-07-16T04:47:33;25.93;52.69
69436;SHT31;56625;54.322;18.582;2023-07-16T04:50:01;25.86;53.18
69436;SHT31;56625;54.322;18.582;2023-07-16T04:52:29;25.81;53.27
69436;SHT31;56625;54.322;18.582;2023-07-16T04:54:57;25.68;52.92
69436;SHT31;56625;54.322;18.582;2023-07-16T04:57:25;25.50;53.17
69436;SHT31;56625;54.322;18.582;2023-07-16T04:59:53;25.39;53.80
69436;SHT31;56625;54.322;18.582;2023-07-16T05:02:21;25.49;53.73
69436;SHT31;56625;54.322;18.582;2023-07-16T05:04:49;25.53;53.08
69436;SHT31;56625;54.322;18.582;2023-07-16T05:07:17;25.34;53.08
69436;SHT31;56625;54.322;18.582;2023-07-16T05:09:45;25.07;53.18
69436;SHT31;56625;54.322;18.582;2023-07-16T05:12:12;24.83;53.89
69436;SHT31;56625;54.322;18.582;2023-07-16T05:14:44;24.64;54.37
69436;SHT31;56625;54.322;18.582;2023-07-16T05:17:15;24.47;54.78
69436;SHT31;56625;54.322;18.582;2023-07-16T05:19:43;24.35;55.26
69436;SHT31;56625;54.322;18.582;2023-07-16T05:22:12;24.29;55.72
69436;SHT31;56625;54.322;18.582;2023-07-16T05:24:40;24.19;56.05
69436;SHT31;56625;54.322;18.582;2023-07-16T05:27:08;24.13;56.58
69436;SHT31;56625;54.322;18.582;2023-07-16T05:29:36;24.05;56.94
69436;SHT31;56625;54.322;18.582;2023-07-16T05:32:04;23.96;57.32
69436;SHT31;56625;54.322;18.582;2023-07-16T05:34:32;23.88;57.82
69436;SHT31;56625;54.322;18.582;2023-07-16T05:37:01;23.80;58.24
69436;SHT31;56625;54.322;18.582;2023-07-16T05:39:29;23.76;58.42
69436;SHT31;56625;54.322;18.582;2023-07-16T05:41:57;23.73;58.68
69436;SHT31;56625;54.322;18.582;2023-07-16T05:44:24;23.68;58.90
69436;SHT31;56625;54.322;18.582;2023-07-16T05:46:52;23.66;59.13
69436;SHT31;56625;54.322;18.582;2023-07-16T05:49:20;23.65;59.29
69436;SHT31;56625;54.322;18.582;2023-07-16T05:51:48;23.70;59.43
69436;SHT31;56625;54.322;18.582;2023-07-16T05:54:16;23.67;59.76
69436;SHT31;56625;54.322;18.582;2023-07-16T05:56:44;23.58;60.34
69436;SHT31;56625;54.322;18.582;2023-07-16T05:59:12;23.52;60.75
69436;SHT31;56625;54.322;18.582;2023-07-16T06:01:40;23.51;60.81
69436;SHT31;56625;54.322;18.582;2023-07-16T06:04:08;23.53;60.83
69436;SHT31;56625;54.322;18.582;2023-07-16T06:06:36;23.61;60.77
69436;SHT31;56625;54.322;18.582;2023-07-16T06:09:04;23.82;60.54
69436;SHT31;56625;54.322;18.582;2023-07-16T06:11:32;24.07;60.11
69436;SHT31;56625;54.322;18.582;2023-07-16T06:14:00;24.36;59.84
69436;SHT31;56625;54.322;18.582;2023-07-16T06:16:28;24.65;58.96
69436;SHT31;56625;54.322;18.582;2023-07-16T06:18:56;24.86;58.25
69436;SHT31;56625;54.322;18.582;2023-07-16T06:21:24;24.98;57.80
69436;SHT31;56625;54.322;18.582;2023-07-16T06:23:52;25.15;57.39
69436;SHT31;56625;54.322;18.582;2023-07-16T06:26:20;25.29;57.23
69436;SHT31;56625;54.322;18.582;2023-07-16T06:28:48;25.49;57.12
69436;SHT31;56625;54.322;18.582;2023-07-16T06:31:17;25.71;56.10
69436;SHT31;56625;54.322;18.582;2023-07-16T06:33:45;25.94;55.78
69436;SHT31;56625;54.322;18.582;2023-07-16T06:36:14;26.20;55.16
69436;SHT31;56625;54.322;18.582;2023-07-16T06:38:43;26.41;54.23
69436;SHT31;56625;54.322;18.582;2023-07-16T06:41:11;26.58;54.48
69436;SHT31;56625;54.322;18.582;2023-07-16T06:43:39;26.77;53.86
69436;SHT31;56625;54.322;18.582;2023-07-16T06:46:07;27.00;53.29
69436;SHT31;56625;54.322;18.582;2023-07-16T06:48:35;27.20;51.93
69436;SHT31;56625;54.322;18.582;2023-07-16T06:51:09;27.33;50.85
69436;SHT31;56625;54.322;18.582;2023-07-16T06:53:37;27.47;50.61
69436;SHT31;56625;54.322;18.582;2023-07-16T06:56:05;27.64;50.54
69436;SHT31;56625;54.322;18.582;2023-07-16T06:58:33;27.81;49.42
69436;SHT31;56625;54.322;18.582;2023-07-16T07:01:01;27.89;49.03
69436;SHT31;56625;54.322;18.582;2023-07-16T07:03:29;27.97;48.58
69436;SHT31;56625;54.322;18.582;2023-07-16T07:05:57;28.08;48.58
69436;SHT31;56625;54.322;18.582;2023-07-16T07:08:25;28.20;48.00
69436;SHT31;56625;54.322;18.582;2023-07-16T07:10:53;28.25;47.30
69436;SHT31;56625;54.322;18.582;2023-07-16T07:13:21;28.30;47.02
69436;SHT31;56625;54.322;18.582;2023-07-16T07:15:49;28.29;47.45
69436;SHT31;56625;54.322;18.582;2023-07-16T07:18:17;28.27;47.09
69436;SHT31;56625;54.322;18.582;2023-07-16T07:20:45;28.24;47.16
69436;SHT31;56625;54.322;18.582;2023-07-16T07:23:15;28.23;46.38
69436;SHT31;56625;54.322;18.582;2023-07-16T07:25:48;28.31;46.36
69436;SHT31;56625;54.322;18.582;2023-07-16T07:28:19;28.39;45.72
69436;SHT31;56625;54.322;18.582;2023-07-16T07:30:47;28.39;45.82
69436;SHT31;56625;54.322;18.582;2023-07-16T07:33:15;28.46;45.68
69436;SHT31;56625;54.322;18.582;2023-07-16T07:35:43;28.55;45.28
69436;SHT31;56625;54.322;18.582;2023-07-16T07:38:11;28.56;45.30
69436;SHT31;56625;54.322;18.582;2023-07-16T07:40:41;28.55;45.52
69436;SHT31;56625;54.322;18.582;2023-07-16T07:43:11;28.64;45.48
69436;SHT31;56625;54.322;18.582;2023-07-16T07:45:39;28.66;45.29
69436;SHT31;56625;54.322;18.582;2023-07-16T07:48:07;28.69;45.42
69436;SHT31;56625;54.322;18.582;2023-07-16T07:50:35;28.80;45.43
69436;SHT31;56625;54.322;18.582;2023-07-16T07:53:04;28.89;44.93
69436;SHT31;56625;54.322;18.582;2023-07-16T07:55:34;28.80;44.79
69436;SHT31;56625;54.322;18.582;2023-07-16T07:58:06;28.80;45.28
69436;SHT31;56625;54.322;18.582;2023-07-16T08:00:35;28.86;45.12
69436;SHT31;56625;54.322;18.582;2023-07-16T08:03:03;28.93;45.38
69436;SHT31;56625;54.322;18.582;2023-07-16T08:05:32;29.04;45.18
69436;SHT31;56625;54.322;18.582;2023-07-16T08:08:01;29.07;45.17
69436;SHT31;56625;54.322;18.582;2023-07-16T08:10:32;29.07;44.80
69436;SHT31;56625;54.322;18.582;2023-07-16T08:13:01;29.06;44.99
69436;SHT31;56625;54.322;18.582;2023-07-16T08:15:30;29.05;44.94
69436;SHT31;56625;54.322;18.582;2023-07-16T08:17:58;29.14;45.24
69436;SHT31;56625;54.322;18.582;2023-07-16T08:20:27;29.21;45.14
69436;SHT31;56625;54.322;18.582;2023-07-16T08:22:55;29.31;45.43
69436;SHT31;56625;54.322;18.582;2023-07-16T08:25:26;29.45;45.52
69436;SHT31;56625;54.322;18.582;2023-07-16T08:27:54;29.52;45.41
69436;SHT31;56625;54.322;18.582;2023-07-16T08:30:22;29.47;45.24
69436;SHT31;56625;54.322;18.582;2023-07-16T08:32:51;29.37;45.65
69436;SHT31;56625;54.322;18.582;2023-07-16T08:35:19;29.36;45.86
69436;SHT31;56625;54.322;18.582;2023-07-16T08:37:47;29.38;45.59
69436;SHT31;56625;54.322;18.582;2023-07-16T08:40:16;29.43;46.13
69436;SHT31;56625;54.322;18.582;2023-07-16T08:42:44;29.64;46.42
69436;SHT31;56625;54.322;18.582;2023-07-16T08:45:14;29.78;46.18
69436;SHT31;56625;54.322;18.582;2023-07-16T08:47:44;29.89;46.03
69436;SHT31;56625;54.322;18.582;2023-07-16T08:50:12;29.99;45.86
69436;SHT31;56625;54.322;18.582;2023-07-16T08:52:41;30.06;45.75
69436;SHT31;56625;54.322;18.582;2023-07-16T08:55:11;30.06;45.48
69436;SHT31;56625;54.322;18.582;2023-07-16T08:57:39;29.92;45.52
69436;SHT31;56625;54.322;18.582;2023-07-16T09:00:10;29.62;46.37
69436;SHT31;56625;54.322;18.582;2023-07-16T09:02:40;29.40;46.85
69436;SHT31;56625;54.322;18.582;2023-07-16T09:05:09;29.22;47.59
69436;SHT31;56625;54.322;18.582;2023-07-16T09:07:54;29.19;48.17
69436;SHT31;56625;54.322;18.582;2023-07-16T09:10:22;29.27;48.37
69436;SHT31;56625;54.322;18.582;2023-07-16T09:12:50;29.24;48.51
69436;SHT31;56625;54.322;18.582;2023-07-16T09:15:19;29.23;48.65
69436;SHT31;56625;54.322;18.582;2023-07-16T09:17:47;29.17;48.85
69436;SHT31;56625;54.322;18.582;2023-07-16T09:20:16;29.05;49.33
69436;SHT31;56625;54.322;18.582;2023-07-16T09:22:46;29.08;49.44
69436;SHT31;56625;54.322;18.582;2023-07-16T09:25:15;28.99;49.56
69436;SHT31;56625;54.322;18.582;2023-07-16T09:27:47;28.92;49.71
69436;SHT31;56625;54.322;18.582;2023-07-16T09:30:16;28.87;50.14
69436;SHT31;56625;54.322;18.582;2023-07-16T09:32:44;28.74;50.52
69436;SHT31;56625;54.322;18.582;2023-07-16T09:35:14;28.54;50.64
69436;SHT31;56625;54.322;18.582;2023-07-16T09:37:43;28.34;51.18
69436;SHT31;56625;54.322;18.582;2023-07-16T09:40:11;28.19;51.57
69436;SHT31;56625;54.322;18.582;2023-07-16T09:42:40;28.02;52.15
69436;SHT31;56625;54.322;18.582;2023-07-16T09:45:16;27.92;51.85
69436;SHT31;56625;54.322;18.582;2023-07-16T09:47:46;27.84;51.90
69436;SHT31;56625;54.322;18.582;2023-07-16T09:50:14;27.80;51.70
69436;SHT31;56625;54.322;18.582;2023-07-16T09:52:42;27.75;51.13
69436;SHT31;56625;54.322;18.582;2023-07-16T09:55:11;27.63;51.00
69436;SHT31;56625;54.322;18.582;2023-07-16T09:57:41;27.51;51.37
69436;SHT31;56625;54.322;18.582;2023-07-16T10:00:12;27.39;51.97
69436;SHT31;56625;54.322;18.582;2023-07-16T10:02:44;27.31;52.69
69436;SHT31;56625;54.322;18.582;2023-07-16T10:07:56;27.24;52.86
69436;SHT31;56625;54.322;18.582;2023-07-16T10:10:37;27.18;52.96
69436;SHT31;56625;54.322;18.582;2023-07-16T10:13:08;27.07;53.35
69436;SHT31;56625;54.322;18.582;2023-07-16T10:15:36;27.03;53.69
69436;SHT31;56625;54.322;18.582;2023-07-16T10:18:04;27.06;53.65
69436;SHT31;56625;54.322;18.582;2023-07-16T10:20:33;27.06;53.59
69436;SHT31;56625;54.322;18.582;2023-07-16T10:23:10;27.01;53.66
69436;SHT31;56625;54.322;18.582;2023-07-16T10:25:59;26.99;54.05
69436;SHT31;56625;54.322;18.582;2023-07-16T10:28:35;27.05;54.28
69436;SHT31;56625;54.322;18.582;2023-07-16T10:31:05;27.05;54.41
69436;SHT31;56625;54.322;18.582;2023-07-16T10:33:38;26.99;54.51
69436;SHT31;56625;54.322;18.582;2023-07-16T10:36:06;26.94;54.65
69436;SHT31;56625;54.322;18.582;2023-07-16T10:38:40;26.92;54.96
69436;SHT31;56625;54.322;18.582;2023-07-16T10:41:11;26.83;55.11
69436;SHT31;56625;54.322;18.582;2023-07-16T10:43:40;26.74;55.40
69436;SHT31;56625;54.322;18.582;2023-07-16T10:46:09;26.66;55.23
69436;SHT31;56625;54.322;18.582;2023-07-16T10:48:37;26.65;55.31
69436;SHT31;56625;54.322;18.582;2023-07-16T10:51:05;26.63;55.24
69436;SHT31;56625;54.322;18.582;2023-07-16T10:53:33;26.57;55.42
69436;SHT31;56625;54.322;18.582;2023-07-16T10:56:00;26.56;55.78
69436;SHT31;56625;54.322;18.582;2023-07-16T10:58:28;26.55;56.24
69436;SHT31;56625;54.322;18.582;2023-07-16T11:00:56;26.56;56.14
69436;SHT31;56625;54.322;18.582;2023-07-16T11:03:24;26.51;56.05
69436;SHT31;56625;54.322;18.582;2023-07-16T11:05:52;26.43;56.23
69436;SHT31;56625;54.322;18.582;2023-07-16T11:08:23;26.40;56.45
69436;SHT31;56625;54.322;18.582;2023-07-16T11:10:53;26.42;56.62
69436;SHT31;56625;54.322;18.582;2023-07-16T11:13:27;26.48;56.74
69436;SHT31;56625;54.322;18.582;2023-07-16T11:15:56;26.54;56.80
69436;SHT31;56625;54.322;18.582;2023-07-16T11:18:34;26.56;56.80
69436;SHT31;56625;54.322;18.582;2023-07-16T11:21:03;26.62;56.51
69436;SHT31;56625;54.322;18.582;2023-07-16T11:23:34;26.73;56.40
69436;SHT31;56625;54.322;18.582;2023-07-16T11:26:03;26.85;56.23
69436;SHT31;56625;54.322;18.582;2023-07-16T11:28:38;26.94;55.96
69436;SHT31;56625;54.322;18.582;2023-07-16T11:31:14;27.07;55.88
69436;SHT31;56625;54.322;18.582;2023-07-16T11:33:45;27.11;55.51
69436;SHT31;56625;54.322;18.582;2023-07-16T11:36:13;27.04;55.23
69436;SHT31;56625;54.322;18.582;2023-07-16T11:38:44;27.02;56.12
69436;SHT31;56625;54.322;18.582;2023-07-16T11:41:12;27.00;56.79
69436;SHT31;56625;54.322;18.582;2023-07-16T11:43:40;26.99;57.61
69436;SHT31;56625;54.322;18.582;2023-07-16T11:46:15;26.97;57.63
69436;SHT31;56625;54.322;18.582;2023-07-16T11:48:51;26.98;57.51
69436;SHT31;56625;54.322;18.582;2023-07-16T11:51:19;27.04;57.50
69436;SHT31;56625;54.322;18.582;2023-07-16T11:53:47;27.10;57.81
69436;SHT31;56625;54.322;18.582;2023-07-16T11:56:15;27.29;57.67
69436;SHT31;56625;54.322;18.582;2023-07-16T11:58:44;27.66;57.09
69436;SHT31;56625;54.322;18.582;2023-07-16T12:01:11;28.01;56.14
69436;SHT31;56625;54.322;18.582;2023-07-16T12:03:41;28.25;55.81
69436;SHT31;56625;54.322;18.582;2023-07-16T12:06:09;28.56;55.02
69436;SHT31;56625;54.322;18.582;2023-07-16T12:08:37;28.62;54.03
69436;SHT31;56625;54.322;18.582;2023-07-16T12:11:05;28.63;53.86
69436;SHT31;56625;54.322;18.582;2023-07-16T12:13:33;28.71;53.76
69436;SHT31;56625;54.322;18.582;2023-07-16T12:16:01;28.82;52.17
69436;SHT31;56625;54.322;18.582;2023-07-16T12:18:30;28.53;51.47
69436;SHT31;56625;54.322;18.582;2023-07-16T12:20:58;28.28;52.28
69436;SHT31;56625;54.322;18.582;2023-07-16T12:23:26;28.29;52.56
69436;SHT31;56625;54.322;18.582;2023-07-16T12:25:54;28.21;52.69
69436;SHT31;56625;54.322;18.582;2023-07-16T12:28:22;28.05;52.45
69436;SHT31;56625;54.322;18.582;2023-07-16T12:30:50;27.80;53.24
69436;SHT31;56625;54.322;18.582;2023-07-16T12:33:19;27.64;53.85
69436;SHT31;56625;54.322;18.582;2023-07-16T12:35:46;27.65;54.00
69436;SHT31;56625;54.322;18.582;2023-07-16T12:38:14;27.72;53.82
69436;SHT31;56625;54.322;18.582;2023-07-16T12:40:42;27.73;53.19
69436;SHT31;56625;54.322;18.582;2023-07-16T12:43:11;27.85;53.13
69436;SHT31;56625;54.322;18.582;2023-07-16T12:45:39;28.03;52.72
69436;SHT31;56625;54.322;18.582;2023-07-16T12:48:08;28.09;52.46
69436;SHT31;56625;54.322;18.582;2023-07-16T12:50:36;28.00;52.86
69436;SHT31;56625;54.322;18.582;2023-07-16T12:53:04;28.05;53.58
69436;SHT31;56625;54.322;18.582;2023-07-16T12:55:32;28.00;54.20
69436;SHT31;56625;54.322;18.582;2023-07-16T12:58:01;28.12;54.22
69436;SHT31;56625;54.322;18.582;2023-07-16T13:00:29;28.41;53.84
69436;SHT31;56625;54.322;18.582;2023-07-16T13:02:57;28.79;53.04
69436;SHT31;56625;54.322;18.582;2023-07-16T13:05:25;28.95;51.65
69436;SHT31;56625;54.322;18.582;2023-07-16T13:07:53;28.84;51.44
69436;SHT31;56625;54.322;18.582;2023-07-16T13:10:22;28.71;51.26
69436;SHT31;56625;54.322;18.582;2023-07-16T13:12:51;28.57;51.22
69436;SHT31;56625;54.322;18.582;2023-07-16T13:15:19;28.50;51.15
69436;SHT31;56625;54.322;18.582;2023-07-16T13:17:48;28.43;51.11
69436;SHT31;56625;54.322;18.582;2023-07-16T13:20:17;28.50;51.09
69436;SHT31;56625;54.322;18.582;2023-07-16T13:22:46;28.67;50.98
69436;SHT31;56625;54.322;18.582;2023-07-16T13:25:14;28.79;51.01
69436;SHT31;56625;54.322;18.582;2023-07-16T13:27:42;28.99;50.87
69436;SHT31;56625;54.322;18.582;2023-07-16T13:30:10;29.06;50.53
69436;SHT31;56625;54.322;18.582;2023-07-16T13:32:39;29.01;50.84
69436;SHT31;56625;54.322;18.582;2023-07-16T13:35:08;29.11;50.93
69436;SHT31;56625;54.322;18.582;2023-07-16T13:37:36;29.21;50.51
69436;SHT31;56625;54.322;18.582;2023-07-16T13:40:04;29.10;50.34
69436;SHT31;56625;54.322;18.582;2023-07-16T13:42:34;28.89;50.83
69436;SHT31;56625;54.322;18.582;2023-07-16T13:45:02;28.71;51.16
69436;SHT31;56625;54.322;18.582;2023-07-16T13:47:30;28.52;51.24
69436;SHT31;56625;54.322;18.582;2023-07-16T13:49:58;28.37;51.60
69436;SHT31;56625;54.322;18.582;2023-07-16T13:52:26;28.24;51.73
69436;SHT31;56625;54.322;18.582;2023-07-16T13:54:55;28.10;52.24
69436;SHT31;56625;54.322;18.582;2023-07-16T13:57:23;27.93;53.09
69436;SHT31;56625;54.322;18.582;2023-07-16T13:59:51;27.74;53.68
69436;SHT31;56625;54.322;18.582;2023-07-16T14:02:19;27.65;53.81
69436;SHT31;56625;54.322;18.582;2023-07-16T14:04:47;27.63;53.83
69436;SHT31;56625;54.322;18.582;2023-07-16T14:07:15;27.55;54.84
69436;SHT31;56625;54.322;18.582;2023-07-16T14:09:43;27.30;55.58
69436;SHT31;56625;54.322;18.582;2023-07-16T14:12:11;26.93;56.28
69436;SHT31;56625;54.322;18.582;2023-07-16T14:14:48;26.59;56.94
69436;SHT31;56625;54.322;18.582;2023-07-16T14:17:18;26.28;57.74
69436;SHT31;56625;54.322;18.582;2023-07-16T14:19:48;26.04;58.25
69436;SHT31;56625;54.322;18.582;2023-07-16T14:22:17;25.87;58.75
69436;SHT31;56625;54.322;18.582;2023-07-16T14:24:45;25.68;59.56
69436;SHT31;56625;54.322;18.582;2023-07-16T14:27:18;25.53;59.83
69436;SHT31;56625;54.322;18.582;2023-07-16T14:29:47;25.48;60.04
69436;SHT31;56625;54.322;18.582;2023-07-16T14:32:32;25.42;60.48
69436;SHT31;56625;54.322;18.582;2023-07-16T14:35:00;25.35;60.79
69436;SHT31;56625;54.322;18.582;2023-07-16T14:37:28;25.25;61.08
69436;SHT31;56625;54.322;18.582;2023-07-16T14:39:59;25.11;61.33
69436;SHT31;56625;54.322;18.582;2023-07-16T14:42:27;25.01;61.86
69436;SHT31;56625;54.322;18.582;2023-07-16T14:44:55;24.89;62.12
69436;SHT31;56625;54.322;18.582;2023-07-16T14:47:24;24.77;62.26
69436;SHT31;56625;54.322;18.582;2023-07-16T14:49:52;24.71;62.26
69436;SHT31;56625;54.322;18.582;2023-07-16T14:52:20;24.68;62.52
69436;SHT31;56625;54.322;18.582;2023-07-16T14:54:48;24.67;62.41
69436;SHT31;56625;54.322;18.582;2023-07-16T14:57:16;24.63;62.47
69436;SHT31;56625;54.322;18.582;2023-07-16T14:59:44;24.58;62.69
69436;SHT31;56625;54.322;18.582;2023-07-16T15:02:12;24.56;62.81
69436;SHT31;56625;54.322;18.582;2023-07-16T15:04:41;24.53;62.95
69436;SHT31;56625;54.322;18.582;2023-07-16T15:07:09;24.52;63.06
69436;SHT31;56625;54.322;18.582;2023-07-16T15:09:37;24.53;63.04
69436;SHT31;56625;54.322;18.582;2023-07-16T15:12:05;24.56;63.07
69436;SHT31;56625;54.322;18.582;2023-07-16T15:14:34;24.59;62.91
69436;SHT31;56625;54.322;18.582;2023-07-16T15:17:04;24.59;62.85
69436;SHT31;56625;54.322;18.582;2023-07-16T15:19:33;24.53;62.95
69436;SHT31;56625;54.322;18.582;2023-07-16T15:22:03;24.52;63.10
69436;SHT31;56625;54.322;18.582;2023-07-16T15:24:33;24.51;63.14
69436;SHT31;56625;54.322;18.582;2023-07-16T15:27:01;24.49;62.85
69436;SHT31;56625;54.322;18.582;2023-07-16T15:29:31;24.47;62.79
69436;SHT31;56625;54.322;18.582;2023-07-16T15:31:59;24.42;62.70
69436;SHT31;56625;54.322;18.582;2023-07-16T15:34:29;24.26;62.47